createdAt,value
2023-02-03T00:00:58.862Z,6.77
2023-02-03T00:03:46.233Z,6.47
2023-02-03T00:06:33.931Z,7.27
2023-02-03T00:09:21.497Z,5.10
2023-02-03T00:12:09.474Z,6.83
2023-02-03T00:14:56.832Z,5.63
2023-02-03T00:17:44.184Z,8.57
2023-02-03T00:20:31.659Z,5.93
2023-02-03T00:23:19.020Z,3.57
2023-02-03T00:26:09.741Z,4.93
2023-02-03T00:28:57.141Z,4.00
2023-02-03T00:31:44.678Z,4.77
2023-02-03T00:34:32.211Z,4.67
2023-02-03T00:37:19.585Z,4.77
2023-02-03T00:40:07.127Z,6.70
2023-02-03T00:42:54.939Z,3.60
2023-02-03T00:45:42.752Z,5.13
2023-02-03T00:48:30.343Z,5.53
2023-02-03T00:51:17.694Z,4.50
2023-02-03T00:54:05.094Z,3.03
2023-02-03T00:56:52.458Z,5.07
2023-02-03T00:59:39.911Z,3.13
2023-02-03T01:02:27.403Z,6.60
2023-02-03T01:05:14.806Z,2.97
2023-02-03T01:08:02.272Z,4.70
2023-02-03T01:10:49.861Z,4.47
2023-02-03T01:13:37.748Z,4.63
2023-02-03T01:16:26.018Z,4.57
2023-02-03T01:19:15.149Z,4.47
2023-02-03T01:22:02.495Z,6.17
2023-02-03T01:24:49.847Z,8.00
2023-02-03T01:27:37.294Z,9.20
2023-02-03T01:30:25.017Z,7.77
2023-02-03T01:33:12.637Z,11.70
2023-02-03T01:36:01.161Z,14.27
2023-02-03T01:38:48.701Z,9.83
2023-02-03T01:41:37.513Z,13.67
2023-02-03T01:44:43.946Z,13.07
2023-02-03T01:47:35.287Z,12.57
2023-02-03T01:50:28.131Z,21.07
2023-02-03T01:53:16.001Z,14.93
2023-02-03T01:56:05.043Z,16.53
2023-02-03T01:58:52.775Z,17.63
2023-02-03T02:01:40.472Z,17.17
2023-02-03T02:04:32.526Z,21.20
2023-02-03T02:07:19.875Z,15.47
2023-02-03T02:10:07.511Z,18.00
2023-02-03T02:12:56.779Z,18.90
2023-02-03T02:15:44.259Z,21.17
2023-02-03T02:18:46.832Z,17.50
2023-02-03T02:21:36.989Z,21.80
2023-02-03T02:24:53.773Z,17.40
2023-02-03T02:28:00.303Z,16.93
2023-02-03T02:30:50.628Z,17.13
2023-02-03T02:33:46.900Z,14.10
2023-02-03T02:36:57.353Z,15.07
2023-02-03T02:39:44.777Z,17.93
2023-02-03T02:42:35.459Z,19.00
2023-02-03T02:45:28.748Z,19.77
2023-02-03T02:48:30.369Z,17.47
2023-02-03T02:51:17.966Z,15.80
2023-02-03T02:54:07.509Z,12.40
2023-02-03T02:56:57.029Z,11.53
2023-02-03T02:59:45.645Z,18.20
2023-02-03T03:02:34.896Z,16.13
2023-02-03T03:05:22.314Z,15.87
2023-02-03T03:08:10.581Z,15.40
2023-02-03T03:10:59.126Z,10.77
2023-02-03T03:13:50.356Z,12.77
2023-02-03T03:16:39.150Z,16.53
2023-02-03T03:19:28.940Z,14.20
2023-02-03T03:22:16.898Z,16.20
2023-02-03T03:25:07.138Z,11.27
2023-02-03T03:27:57.585Z,11.83
2023-02-03T03:30:45.115Z,9.13
2023-02-03T03:33:32.551Z,13.73
2023-02-03T03:36:32.182Z,12.13
2023-02-03T03:39:22.423Z,11.13
2023-02-03T03:42:21.953Z,10.87
2023-02-03T03:45:18.570Z,13.23
2023-02-03T03:48:17.593Z,16.93
2023-02-03T03:51:07.956Z,16.83
2023-02-03T03:53:56.078Z,14.07
2023-02-03T03:56:47.601Z,14.17
2023-02-03T03:59:38.339Z,11.40
2023-02-03T04:02:25.980Z,11.30
2023-02-03T04:05:14.148Z,12.23
2023-02-03T04:08:03.121Z,12.07
2023-02-03T04:10:50.457Z,9.47
2023-02-03T04:13:37.800Z,8.27
2023-02-03T04:16:25.195Z,11.20
2023-02-03T04:19:12.574Z,10.33
2023-02-03T04:21:59.941Z,9.33
2023-02-03T04:24:47.303Z,9.53
2023-02-03T04:27:35.281Z,8.20
2023-02-03T04:30:23.041Z,9.30
2023-02-03T04:33:10.428Z,12.40
2023-02-03T04:35:57.784Z,10.83
2023-02-03T04:38:45.164Z,10.90
2023-02-03T04:41:32.670Z,9.93
2023-02-03T04:44:20.106Z,5.60
2023-02-03T04:47:07.563Z,9.53
2023-02-03T04:49:54.932Z,2.67
2023-02-03T04:52:42.253Z,9.53
2023-02-03T04:55:29.648Z,10.30
2023-02-03T04:58:17.010Z,4.10
2023-02-03T05:01:09.105Z,8.30
2023-02-03T05:03:56.564Z,6.93
2023-02-03T05:06:43.888Z,7.33
2023-02-03T05:09:31.319Z,9.63
2023-02-03T05:12:18.667Z,7.53
2023-02-03T05:15:06.281Z,8.97
2023-02-03T05:17:54.053Z,7.80
2023-02-03T05:20:41.408Z,9.20
2023-02-03T05:23:28.760Z,8.07
2023-02-03T05:26:16.176Z,8.53
2023-02-03T05:29:03.984Z,7.53
2023-02-03T05:31:51.392Z,6.73
2023-02-03T05:34:40.672Z,10.30
2023-02-03T05:37:29.383Z,9.93
2023-02-03T05:40:35.655Z,7.07
2023-02-03T05:43:23.076Z,10.73
2023-02-03T05:46:10.452Z,8.87
2023-02-03T05:48:57.798Z,6.20
2023-02-03T05:51:45.128Z,6.00
2023-02-03T05:54:32.512Z,6.93
2023-02-03T05:57:19.879Z,7.30
2023-02-03T06:00:07.849Z,8.20
2023-02-03T06:02:56.173Z,8.77
2023-02-03T06:05:44.200Z,6.33
2023-02-03T06:08:31.538Z,4.17
2023-02-03T06:11:18.989Z,7.60
2023-02-03T06:14:06.365Z,8.30
2023-02-03T06:16:53.767Z,3.13
2023-02-03T06:19:41.117Z,3.57
2023-02-03T06:22:28.480Z,3.00
2023-02-03T06:25:15.971Z,5.47
2023-02-03T06:28:03.460Z,8.93
2023-02-03T06:30:53.065Z,5.13
2023-02-03T06:33:40.562Z,4.60
2023-02-03T06:36:27.915Z,4.77
2023-02-03T06:39:15.766Z,4.07
2023-02-03T06:42:03.141Z,7.57
2023-02-03T06:44:50.702Z,5.10
2023-02-03T06:47:40.108Z,7.07
2023-02-03T06:50:27.792Z,4.67
2023-02-03T06:53:15.424Z,7.47
2023-02-03T06:56:03.387Z,6.67
2023-02-03T06:58:50.892Z,4.93
2023-02-03T07:01:38.562Z,6.37
2023-02-03T07:04:29.971Z,6.27
2023-02-03T07:07:17.472Z,10.37
2023-02-03T07:10:04.876Z,9.20
2023-02-03T07:12:52.242Z,10.70
2023-02-03T07:15:39.730Z,14.93
2023-02-03T07:21:34.687Z,8.30
2023-02-03T07:24:22.069Z,11.63
2023-02-03T07:27:09.424Z,14.30
2023-02-03T07:29:56.760Z,7.63
2023-02-03T07:32:47.876Z,13.93
2023-02-03T07:35:35.284Z,12.73
2023-02-03T07:38:22.967Z,14.80
2023-02-03T07:41:10.461Z,13.37
2023-02-03T07:43:57.822Z,8.17
2023-02-03T07:46:45.481Z,10.03
2023-02-03T07:49:32.912Z,11.03
2023-02-03T07:52:21.973Z,10.80
2023-02-03T07:55:09.566Z,11.83
2023-02-03T07:57:57.867Z,10.87
2023-02-03T08:00:45.252Z,13.03
2023-02-03T08:03:32.604Z,16.60
2023-02-03T08:06:20.020Z,15.63
2023-02-03T08:09:07.344Z,13.43
2023-02-03T08:11:54.768Z,10.10
2023-02-03T08:14:42.120Z,15.20
2023-02-03T08:17:29.586Z,13.00
2023-02-03T08:20:17.273Z,11.43
2023-02-03T08:23:05.287Z,12.17
2023-02-03T08:25:53.147Z,15.53
2023-02-03T08:28:40.525Z,11.20
2023-02-03T08:31:27.982Z,15.47
2023-02-03T08:34:15.370Z,16.30
2023-02-03T08:37:02.710Z,19.10
2023-02-03T08:39:50.045Z,17.77
2023-02-03T08:42:37.556Z,20.70
2023-02-03T08:45:24.955Z,19.60
2023-02-03T08:48:12.471Z,22.93
2023-02-03T08:50:59.875Z,21.17
2023-02-03T08:53:47.219Z,18.83
2023-02-03T08:56:34.589Z,23.50
2023-02-03T08:59:21.943Z,22.93
2023-02-03T09:02:12.045Z,27.37
2023-02-03T09:04:59.510Z,27.67
2023-02-03T09:07:46.947Z,27.13
2023-02-03T09:10:34.318Z,26.67
2023-02-03T09:13:21.762Z,21.37
2023-02-03T09:16:09.297Z,34.40
2023-02-03T09:18:56.662Z,26.33
2023-02-03T09:21:45.755Z,31.43
2023-02-03T09:24:35.882Z,27.50
2023-02-03T09:27:23.248Z,29.57
2023-02-03T09:30:11.020Z,26.50
2023-02-03T09:32:58.884Z,36.93
2023-02-03T09:35:52.503Z,35.27
2023-02-03T09:38:40.092Z,27.73
2023-02-03T09:41:42.583Z,33.40
2023-02-03T09:44:37.136Z,33.10
2023-02-03T09:47:27.534Z,34.70
2023-02-03T09:50:22.857Z,33.13
2023-02-03T09:53:33.471Z,27.97
2023-02-03T09:56:27.515Z,26.77
2023-02-03T09:59:14.874Z,32.33
2023-02-03T10:02:12.053Z,33.63
2023-02-03T10:05:12.316Z,36.73
2023-02-03T10:08:08.092Z,25.33
2023-02-03T10:11:09.682Z,34.17
2023-02-03T10:14:16.078Z,25.63
2023-02-03T10:17:22.339Z,32.70
2023-02-03T10:20:09.706Z,34.87
2023-02-03T10:23:04.007Z,44.97
2023-02-03T10:25:57.409Z,28.70
2023-02-03T10:28:55.478Z,33.90
2023-02-03T10:31:43.654Z,28.70
2023-02-03T10:34:31.173Z,34.67
2023-02-03T10:37:30.583Z,42.23
2023-02-03T10:40:18.235Z,35.00
2023-02-03T10:43:24.273Z,35.47
2023-02-03T10:46:11.656Z,33.70
2023-02-03T10:48:59.134Z,32.40
2023-02-03T10:51:51.734Z,32.87
2023-02-03T10:54:39.083Z,39.80
2023-02-03T10:57:28.514Z,31.87
2023-02-03T11:00:20.631Z,30.00
2023-02-03T11:03:22.399Z,26.83
2023-02-03T11:06:09.797Z,26.17
2023-02-03T11:08:57.561Z,25.63
2023-02-03T11:11:44.923Z,18.97
2023-02-03T11:14:37.199Z,31.87
2023-02-03T11:17:29.609Z,27.10
2023-02-03T11:20:17.709Z,40.47
2023-02-03T11:23:05.674Z,31.33
2023-02-03T11:25:53.144Z,31.70
2023-02-03T11:28:44.456Z,39.83
2023-02-03T11:31:36.875Z,39.50
2023-02-03T11:34:30.441Z,30.17
2023-02-03T11:37:41.847Z,35.30
2023-02-03T11:40:34.092Z,18.97
2023-02-03T11:43:23.565Z,29.43
2023-02-03T11:46:11.142Z,28.13
2023-02-03T11:49:04.872Z,26.63
2023-02-03T11:52:18.595Z,25.50
2023-02-03T11:55:11.783Z,21.50
2023-02-03T11:58:18.270Z,27.07
2023-02-03T12:01:24.642Z,31.30
2023-02-03T12:04:32.413Z,31.50
2023-02-03T12:07:41.111Z,28.33
2023-02-03T12:10:47.173Z,28.50
2023-02-03T12:13:52.243Z,32.80
2023-02-03T12:16:39.709Z,28.03
2023-02-03T12:19:30.419Z,31.37
2023-02-03T12:22:26.933Z,26.37
2023-02-03T12:25:20.339Z,23.90
2023-02-03T12:28:32.224Z,27.37
2023-02-03T12:31:39.536Z,24.00
2023-02-03T12:34:45.832Z,21.07
2023-02-03T12:37:45.285Z,29.10
2023-02-03T12:40:52.003Z,32.37
2023-02-03T12:43:41.089Z,32.63
2023-02-03T12:46:35.947Z,33.60
2023-02-03T12:49:36.097Z,30.70
2023-02-03T12:52:32.841Z,32.53
2023-02-03T12:55:35.739Z,24.47
2023-02-03T12:58:23.077Z,26.70
2023-02-03T13:01:17.060Z,22.53
2023-02-03T13:04:25.583Z,33.20
2023-02-03T13:07:36.824Z,29.97
2023-02-03T13:10:36.326Z,35.43
2023-02-03T13:13:29.897Z,21.07
2023-02-03T13:16:19.904Z,30.33
2023-02-03T13:19:10.543Z,27.23
2023-02-03T13:21:57.917Z,28.60
2023-02-03T13:24:51.611Z,25.63
2023-02-03T13:27:52.766Z,30.20
2023-02-03T13:30:55.253Z,31.30
2023-02-03T13:34:01.881Z,24.17
2023-02-03T13:37:11.630Z,27.07
2023-02-03T13:39:58.981Z,23.90
2023-02-03T13:42:55.207Z,25.27
2023-02-03T13:45:44.268Z,24.47
2023-02-03T13:48:33.518Z,32.67
2023-02-03T13:51:35.162Z,75.67
2023-02-03T13:54:48.989Z,30.13
2023-02-03T13:57:38.064Z,36.13
2023-02-03T14:00:43.748Z,44.87
2023-02-03T14:03:31.111Z,31.97
2023-02-03T14:06:36.750Z,29.17
2023-02-03T14:09:37.991Z,30.07
2023-02-03T14:12:33.208Z,25.50
2023-02-03T14:15:20.592Z,29.57
2023-02-03T14:18:26.725Z,28.50
2023-02-03T14:21:17.058Z,26.00
2023-02-03T14:24:06.741Z,26.67
2023-02-03T14:26:56.070Z,21.50
2023-02-03T14:29:43.585Z,23.70
2023-02-03T14:32:51.372Z,29.23
2023-02-03T14:35:40.502Z,26.50
2023-02-03T14:38:31.760Z,29.10
2023-02-03T14:41:27.071Z,27.30
2023-02-03T14:44:35.236Z,21.93
2023-02-03T14:47:25.625Z,24.50
2023-02-03T14:50:24.977Z,32.93
2023-02-03T14:53:15.327Z,19.60
2023-02-03T14:56:14.210Z,20.20
2023-02-03T14:59:03.695Z,29.20
2023-02-03T15:01:54.283Z,28.70
2023-02-03T15:04:42.345Z,29.97
2023-02-03T15:07:37.627Z,30.40
2023-02-03T15:10:30.096Z,26.77
2023-02-03T15:13:26.731Z,26.97
2023-02-03T15:16:16.818Z,33.00
2023-02-03T15:19:09.510Z,23.90
2023-02-03T15:21:56.915Z,26.70
2023-02-03T15:24:44.410Z,37.53
2023-02-03T15:27:32.528Z,32.87
2023-02-03T15:30:19.939Z,29.10
2023-02-03T15:33:08.536Z,28.20
2023-02-03T15:36:01.926Z,35.05
2023-02-03T15:38:56.531Z,29.70
2023-02-03T15:41:45.352Z,30.27
2023-02-03T15:44:35.885Z,34.43
2023-02-03T15:47:29.036Z,26.83
2023-02-03T15:50:24.096Z,28.43
2023-02-03T15:53:16.219Z,24.07
2023-02-03T15:56:05.578Z,27.87
2023-02-03T15:58:58.695Z,26.37
2023-02-03T16:01:46.084Z,29.27
2023-02-03T16:04:33.863Z,23.53
2023-02-03T16:07:29.263Z,33.27
2023-02-03T16:10:30.959Z,28.53
2023-02-03T16:13:22.154Z,25.83
2023-02-03T16:16:19.917Z,26.90
2023-02-03T16:19:13.310Z,31.00
2023-02-03T16:22:00.944Z,28.63
2023-02-03T16:24:48.272Z,29.17
2023-02-03T16:27:35.613Z,29.83
2023-02-03T16:30:43.253Z,33.03
2023-02-03T16:33:51.348Z,30.27
2023-02-03T16:37:02.040Z,26.23
2023-02-03T16:40:08.439Z,24.63
2023-02-03T16:43:14.600Z,28.43
2023-02-03T16:46:20.986Z,28.27
2023-02-03T16:49:27.517Z,27.23
2023-02-03T16:52:15.108Z,22.30
2023-02-03T16:55:02.548Z,28.03
2023-02-03T16:57:51.239Z,24.03
2023-02-03T17:00:42.450Z,33.63
2023-02-03T17:03:30.148Z,23.87
2023-02-03T17:06:17.513Z,16.93
2023-02-03T17:09:04.933Z,20.37
2023-02-03T17:11:52.323Z,22.07
2023-02-03T17:14:39.679Z,24.67
2023-02-03T17:17:27.014Z,21.30
2023-02-03T17:20:14.458Z,27.93
2023-02-03T17:23:01.904Z,23.67
2023-02-03T17:25:50.413Z,28.93
2023-02-03T17:28:40.074Z,27.10
2023-02-03T17:31:27.576Z,24.63
2023-02-03T17:34:14.971Z,30.97
2023-02-03T17:37:02.313Z,24.93
2023-02-03T17:55:15.566Z,28.47
2023-02-03T17:58:03.847Z,21.13
2023-02-03T18:00:51.263Z,18.80
2023-02-03T18:03:38.642Z,22.17
2023-02-03T18:06:27.294Z,26.57
2023-02-03T18:09:16.497Z,21.07
2023-02-03T18:12:03.970Z,20.67
2023-02-03T18:14:51.307Z,19.90
2023-02-03T18:17:38.908Z,25.00
2023-02-03T18:20:26.298Z,13.63
2023-02-03T18:23:14.340Z,17.90
2023-02-03T18:26:01.834Z,15.70
2023-02-03T18:28:53.123Z,22.10
2023-02-03T18:31:40.571Z,19.30
2023-02-03T18:34:28.070Z,16.47
2023-02-03T18:37:15.439Z,16.87
2023-02-03T18:40:02.795Z,17.67
2023-02-03T18:42:50.214Z,20.47
2023-02-03T18:45:38.688Z,30.13
2023-02-03T18:48:26.067Z,19.20
2023-02-03T18:51:15.302Z,16.00
2023-02-03T18:54:03.450Z,14.67
2023-02-03T18:56:50.833Z,13.50
2023-02-03T18:59:38.183Z,15.93
2023-02-03T19:02:25.733Z,20.13
2023-02-03T19:05:13.958Z,15.53
2023-02-03T19:08:01.497Z,18.10
2023-02-03T19:10:52.510Z,16.40
2023-02-03T19:13:40.099Z,17.03
2023-02-03T19:16:27.504Z,17.20
2023-02-03T19:19:15.037Z,12.23
2023-02-03T19:22:02.491Z,12.43
2023-02-03T19:24:49.850Z,9.07
2023-02-03T19:27:37.440Z,13.20
2023-02-03T19:30:24.849Z,13.93
2023-02-03T19:33:12.330Z,11.70
2023-02-03T19:35:59.730Z,12.93
2023-02-03T19:38:47.116Z,10.23
2023-02-03T19:41:36.350Z,6.50
2023-02-03T19:44:23.706Z,10.20
2023-02-03T19:47:11.200Z,5.30
2023-02-03T19:49:58.529Z,5.67
2023-02-03T19:52:47.129Z,5.57
2023-02-03T19:55:34.480Z,4.33
2023-02-03T19:58:23.520Z,4.40
2023-02-03T20:01:11.319Z,5.43
2023-02-03T20:03:58.719Z,3.67
2023-02-03T20:06:46.094Z,5.47
2023-02-03T20:09:33.481Z,9.00
2023-02-03T20:12:20.995Z,5.87
2023-02-03T20:15:08.587Z,3.50
2023-02-03T20:17:56.151Z,6.10
2023-02-03T20:20:43.548Z,4.13
2023-02-03T20:23:31.155Z,6.47
2023-02-03T20:26:18.487Z,4.13
2023-02-03T20:29:06.449Z,3.50
2023-02-03T20:31:54.730Z,4.10
2023-02-03T20:34:42.146Z,5.47
2023-02-03T20:37:29.498Z,5.37
2023-02-03T20:40:17.527Z,7.10
2023-02-03T20:43:18.685Z,4.63
2023-02-03T20:46:13.162Z,5.87
2023-02-03T20:49:00.535Z,5.77
2023-02-03T20:51:47.944Z,2.70
2023-02-03T20:54:35.426Z,3.57
2023-02-03T20:57:23.004Z,5.57
2023-02-03T21:00:15.564Z,3.50
2023-02-03T21:03:21.664Z,2.93
2023-02-03T21:06:13.074Z,4.57
2023-02-03T21:09:09.050Z,3.47
2023-02-03T21:11:56.501Z,5.27
2023-02-03T21:14:44.713Z,2.10
2023-02-03T21:17:35.388Z,3.60
2023-02-03T21:20:25.735Z,3.07
2023-02-03T21:23:14.221Z,4.50
2023-02-03T21:26:01.759Z,3.03
2023-02-03T21:28:56.442Z,2.20
2023-02-03T21:31:45.479Z,2.50
2023-02-03T21:34:34.347Z,2.40
2023-02-03T21:37:38.558Z,2.27
2023-02-03T21:40:27.764Z,3.13
2023-02-03T21:43:18.724Z,2.47
2023-02-03T21:46:06.276Z,4.07
2023-02-03T21:48:57.448Z,3.73
2023-02-03T21:51:45.399Z,4.23
2023-02-03T21:54:33.710Z,2.17
2023-02-03T21:57:21.253Z,2.20
2023-02-03T22:00:27.740Z,4.20
2023-02-03T22:03:20.178Z,3.93
2023-02-03T22:06:14.227Z,3.47
2023-02-03T22:09:01.615Z,17.53
2023-02-03T22:11:48.977Z,2.00
2023-02-03T22:14:36.370Z,5.07
2023-02-03T22:17:23.697Z,2.97
2023-02-03T22:20:11.415Z,2.27
2023-02-03T22:22:58.839Z,3.10
2023-02-03T22:25:46.564Z,5.17
2023-02-03T22:28:34.098Z,3.83
2023-02-03T22:31:22.157Z,2.47
2023-02-03T22:34:09.576Z,2.47
2023-02-03T22:36:56.966Z,4.37
2023-02-03T22:39:44.385Z,3.73
2023-02-03T22:42:31.712Z,1.60
2023-02-03T22:45:20.245Z,3.17
2023-02-03T22:48:07.630Z,2.87
2023-02-03T22:50:55.545Z,2.43
2023-02-03T22:53:43.000Z,3.33
2023-02-03T22:56:30.321Z,3.47
2023-02-03T22:59:17.770Z,3.13
2023-02-03T23:02:05.973Z,1.87
2023-02-03T23:04:53.480Z,2.17
2023-02-03T23:07:41.250Z,2.97
2023-02-03T23:10:32.468Z,2.43
2023-02-03T23:13:20.143Z,3.80
2023-02-03T23:16:07.787Z,1.67
2023-02-03T23:18:55.652Z,1.93
2023-02-03T23:21:43.286Z,2.70
2023-02-03T23:24:30.679Z,1.60
2023-02-03T23:27:18.029Z,2.40
2023-02-03T23:30:07.489Z,3.87
2023-02-03T23:32:54.888Z,3.30
2023-02-03T23:35:45.318Z,1.67
2023-02-03T23:38:33.576Z,4.73
2023-02-03T23:41:20.984Z,5.07
2023-02-03T23:44:09.226Z,1.80
2023-02-03T23:46:56.722Z,3.27
2023-02-03T23:49:44.079Z,2.03
2023-02-03T23:52:35.575Z,1.67
2023-02-03T23:55:23.485Z,3.43
2023-02-03T23:58:10.899Z,3.10
